Time;durP1;ratioP1;P1;durP2;ratioP2;P2;SDS_P1;SDS_P2;PMS_P1;PMS_P2;Temp;Humidity;BMP_temperature;BMP_pressure;BME280_temperature;BME280_humidity;BME280_pressure;Samples;Min_cycle;Max_cycle;Signal;HPM_P1;HPM_P2
2022/11/13 00:02:05;;;;;;;17.33;12.20;;;6.00;99.90;;;;;;4927259;29;20443;-87
2022/11/13 00:04:31;;;;;;;16.75;13.93;;;6.00;99.90;;;;;;4937114;29;20051;-87
2022/11/13 00:06:56;;;;;;;12.85;11.52;;;6.00;99.90;;;;;;4933774;29;20062;-87
2022/11/13 00:09:22;;;;;;;14.23;11.27;;;6.00;99.90;;;;;;4931018;29;20040;-87
2022/11/13 00:11:48;;;;;;;11.65;9.93;;;6.10;99.90;;;;;;4929197;29;20087;-87
2022/11/13 00:14:13;;;;;;;12.20;10.35;;;6.00;99.90;;;;;;4917019;29;20039;-88
2022/11/13 00:16:39;;;;;;;12.77;9.68;;;6.00;99.90;;;;;;4919901;29;20031;-87
2022/11/13 00:19:04;;;;;;;13.27;10.65;;;6.00;99.90;;;;;;4916415;29;20046;-88
2022/11/13 00:21:30;;;;;;;16.50;11.73;;;6.10;99.90;;;;;;4935304;29;20462;-87
2022/11/13 00:23:56;;;;;;;13.57;12.02;;;6.80;99.90;;;;;;4919464;29;20079;-88
2022/11/13 00:26:24;;;;;;;14.55;11.75;;;6.20;99.90;;;;;;4935835;29;20035;-87
2022/11/13 00:28:59;;;;;;;17.77;11.68;;;6.20;99.90;;;;;;4935701;29;20039;-87
2022/11/13 00:31:28;;;;;;;17.75;12.20;;;6.20;99.90;;;;;;4935597;29;20048;-87
2022/11/13 00:33:58;;;;;;;17.25;12.15;;;6.70;99.90;;;;;;4935912;29;20049;-87
2022/11/13 00:36:26;;;;;;;13.35;11.93;;;7.00;99.90;;;;;;4933649;29;20055;-87
2022/11/13 00:38:51;;;;;;;13.93;11.50;;;6.40;99.90;;;;;;4918727;29;20035;-87
2022/11/13 00:41:17;;;;;;;14.10;11.05;;;6.30;99.90;;;;;;4926305;29;20140;-87
2022/11/13 00:43:43;;;;;;;13.15;10.93;;;6.40;99.90;;;;;;4931150;29;20040;-87
2022/11/13 00:46:08;;;;;;;13.32;11.38;;;6.40;99.90;;;;;;4933358;29;20032;-87
2022/11/13 00:48:34;;;;;;;15.88;11.57;;;6.50;99.90;;;;;;4912751;29;20027;-87
2022/11/13 00:51:00;;;;;;;11.85;10.63;;;6.60;99.90;;;;;;4935304;29;20039;-87
2022/11/13 00:53:26;;;;;;;11.77;10.57;;;6.40;99.90;;;;;;4918196;29;20040;-87
2022/11/13 00:55:54;;;;;;;14.65;12.63;;;6.40;99.90;;;;;;4932291;29;20051;-87
2022/11/13 00:58:20;;;;;;;14.80;11.27;;;6.50;99.90;;;;;;4912257;29;20063;-87
2022/11/13 01:00:47;;;;;;;15.82;11.88;;;6.60;99.90;;;;;;4935568;29;20027;-87
2022/11/13 01:03:14;;;;;;;14.40;11.77;;;6.60;99.90;;;;;;4932643;29;20048;-87
2022/11/13 01:05:42;;;;;;;16.65;12.43;;;6.60;99.90;;;;;;4915262;29;20032;-87
2022/11/13 01:08:08;;;;;;;14.02;10.02;;;6.70;99.90;;;;;;4927698;29;20036;-87
2022/11/13 01:10:38;;;;;;;13.15;9.82;;;6.70;99.90;;;;;;4934452;29;20046;-87
2022/11/13 01:13:03;;;;;;;10.98;9.85;;;6.60;99.90;;;;;;4927085;29;20040;-87
2022/11/13 01:15:29;;;;;;;14.07;11.55;;;6.60;99.90;;;;;;4933486;29;20043;-87
2022/11/13 01:17:55;;;;;;;14.40;10.55;;;6.90;99.90;;;;;;4934482;29;20702;-87
2022/11/13 01:20:23;;;;;;;19.73;10.98;;;7.10;99.90;;;;;;4918265;29;20130;-87
2022/11/13 01:22:48;;;;;;;13.85;12.07;;;6.60;99.90;;;;;;4918818;29;20054;-87
2022/11/13 01:25:15;;;;;;;13.02;11.73;;;6.70;99.90;;;;;;4911365;29;20036;-87
2022/11/13 01:27:40;;;;;;;11.90;10.60;;;6.80;99.90;;;;;;4935752;29;20054;-87
2022/11/13 01:30:06;;;;;;;13.15;10.35;;;6.70;99.90;;;;;;4933933;29;20043;-87
2022/11/13 01:32:33;;;;;;;11.70;9.75;;;6.70;99.90;;;;;;4934293;29;20046;-88
2022/11/13 01:34:59;;;;;;;11.18;9.82;;;6.90;99.90;;;;;;4927035;29;20130;-87
2022/11/13 01:37:25;;;;;;;11.65;9.32;;;6.60;99.90;;;;;;4932618;29;20130;-87
2022/11/13 01:39:53;;;;;;;12.45;8.45;;;6.60;99.90;;;;;;4932649;29;20395;-87
2022/11/13 01:42:18;;;;;;;10.23;9.07;;;6.50;99.90;;;;;;4932688;29;20478;-87
2022/11/13 01:44:53;;;;;;;11.25;9.13;;;6.50;99.90;;;;;;4930586;29;20039;-87
2022/11/13 01:47:21;;;;;;;10.40;9.07;;;6.50;99.90;;;;;;4916141;29;20032;-88
2022/11/13 01:49:49;;;;;;;10.85;8.15;;;6.50;99.90;;;;;;4925882;29;20044;-88
2022/11/13 01:52:34;;;;;;;9.05;8.13;;;6.50;99.90;;;;;;4914712;29;20490;-87
2022/11/13 01:55:18;;;;;;;13.52;10.18;;;6.50;99.90;;;;;;4932768;29;20131;-87
2022/11/13 01:57:44;;;;;;;10.35;9.18;;;6.50;99.90;;;;;;4917673;29;20126;-87
2022/11/13 02:00:11;;;;;;;14.93;9.75;;;6.40;99.90;;;;;;4930187;29;20478;-87
2022/11/13 02:02:37;;;;;;;11.48;9.85;;;6.40;99.90;;;;;;4910767;29;20051;-87
2022/11/13 02:05:03;;;;;;;13.30;10.57;;;6.40;99.90;;;;;;4935060;29;20024;-87
2022/11/13 02:07:29;;;;;;;13.68;11.13;;;6.40;99.90;;;;;;4917931;29;20475;-87
2022/11/13 02:09:57;;;;;;;13.40;11.57;;;6.30;99.90;;;;;;4934546;29;20051;-87
2022/11/13 02:12:31;;;;;;;13.73;10.68;;;6.40;99.90;;;;;;4921922;29;20043;-87
2022/11/13 02:14:58;;;;;;;12.55;11.05;;;6.30;99.90;;;;;;4937662;29;20079;-87
2022/11/13 02:17:32;;;;;;;11.98;10.70;;;6.40;99.90;;;;;;4936209;29;20107;-87
2022/11/13 02:20:03;;;;;;;14.82;11.05;;;6.30;99.90;;;;;;4916538;29;20044;-87
2022/11/13 02:22:44;;;;;;;14.77;11.18;;;6.50;99.90;;;;;;4948276;29;20091;-87
2022/11/13 02:25:13;;;;;;;12.77;10.80;;;6.30;99.90;;;;;;4937960;29;20047;-87
2022/11/13 02:27:44;;;;;;;12.23;10.82;;;6.30;99.90;;;;;;4922508;29;20470;-87
2022/11/13 02:30:23;;;;;;;14.85;12.60;;;6.30;99.90;;;;;;4938862;29;20046;-87
2022/11/13 02:32:53;;;;;;;12.77;11.43;;;6.40;99.90;;;;;;4903055;29;20051;-87
2022/11/13 02:35:32;;;;;;;15.90;12.15;;;6.50;99.90;;;;;;4927557;29;20099;-87
2022/11/13 02:38:02;;;;;;;16.20;12.57;;;6.60;99.90;;;;;;4938030;29;20402;-87
2022/11/13 02:40:29;;;;;;;20.48;11.98;;;7.20;99.90;;;;;;4932626;29;20548;-87
2022/11/13 02:42:55;;;;;;;13.88;11.55;;;6.60;99.90;;;;;;4908138;29;20107;-87
2022/11/13 02:45:21;;;;;;;14.15;11.98;;;6.70;99.90;;;;;;4936154;29;20040;-87
2022/11/13 02:47:47;;;;;;;13.40;12.00;;;6.70;99.90;;;;;;4932305;29;20044;-87
2022/11/13 02:50:13;;;;;;;16.98;11.63;;;6.60;99.90;;;;;;4911493;29;20048;-87
2022/11/13 02:52:39;;;;;;;13.18;11.77;;;6.60;99.90;;;;;;4908568;29;20035;-87
2022/11/13 02:55:08;;;;;;;14.80;13.13;;;6.70;99.90;;;;;;4938425;29;20538;-88
2022/11/13 02:57:38;;;;;;;14.57;11.48;;;6.70;99.90;;;;;;4937692;29;20065;-88
2022/11/13 03:00:05;;;;;;;14.73;11.88;;;6.70;99.90;;;;;;4938667;29;20039;-87
2022/11/13 03:02:42;;;;;;;15.45;12.68;;;6.70;99.90;;;;;;4938301;29;20052;-87
2022/11/13 03:05:08;;;;;;;14.55;12.95;;;6.70;99.90;;;;;;4937240;29;20067;-87
2022/11/13 03:07:34;;;;;;;18.30;13.18;;;7.90;99.90;;;;;;4937286;29;20044;-87
2022/11/13 03:10:00;;;;;;;13.85;12.55;;;6.70;99.90;;;;;;4933718;29;20055;-87
2022/11/13 03:12:26;;;;;;;15.63;12.43;;;6.70;99.90;;;;;;4918615;29;20087;-86
2022/11/13 03:14:51;;;;;;;16.00;12.15;;;6.80;99.90;;;;;;4917708;29;20135;-87
2022/11/13 03:17:19;;;;;;;14.65;12.50;;;6.70;99.90;;;;;;4917999;29;20055;-87
2022/11/13 03:19:45;;;;;;;17.48;13.27;;;6.70;99.90;;;;;;4902337;29;20431;-87
2022/11/13 03:22:10;;;;;;;14.43;12.93;;;6.80;99.90;;;;;;4917107;29;20059;-87
2022/11/13 03:24:36;;;;;;;14.90;12.85;;;6.80;99.90;;;;;;4905819;29;20032;-87
2022/11/13 03:27:03;;;;;;;17.55;13.27;;;6.80;99.90;;;;;;4936577;29;20039;-87
2022/11/13 03:29:28;;;;;;;14.18;11.57;;;6.70;99.90;;;;;;4932378;29;20044;-87
2022/11/13 03:31:54;;;;;;;14.38;12.65;;;6.80;99.90;;;;;;4931036;29;20487;-87
2022/11/13 03:34:20;;;;;;;13.68;12.27;;;6.80;99.90;;;;;;4936932;29;20050;-87
2022/11/13 03:36:45;;;;;;;13.88;11.55;;;6.80;99.90;;;;;;4908821;29;20652;-86
2022/11/13 03:39:11;;;;;;;14.13;12.73;;;6.80;99.90;;;;;;4925046;29;20126;-87
2022/11/13 03:41:36;;;;;;;13.13;11.63;;;7.10;99.90;;;;;;4935754;29;20038;-87
2022/11/13 03:44:02;;;;;;;14.95;11.88;;;6.70;99.90;;;;;;4914347;29;20127;-87
2022/11/13 03:46:28;;;;;;;14.65;12.70;;;7.40;99.90;;;;;;4935177;29;20717;-87
2022/11/13 03:48:53;;;;;;;13.40;11.77;;;6.70;99.90;;;;;;4933416;29;20043;-87
2022/11/13 03:51:19;;;;;;;13.10;11.90;;;6.70;99.90;;;;;;4912227;29;20044;-87
2022/11/13 03:53:44;;;;;;;13.98;11.70;;;6.60;99.90;;;;;;4930956;29;20047;-87
2022/11/13 03:56:10;;;;;;;14.52;13.00;;;6.60;99.90;;;;;;4923549;29;20691;-87
2022/11/13 03:58:36;;;;;;;13.50;12.18;;;6.60;99.90;;;;;;4913885;29;20094;-87
2022/11/13 04:01:01;;;;;;;14.45;12.00;;;6.60;99.90;;;;;;4927301;29;20048;-87
2022/11/13 04:03:27;;;;;;;13.82;11.55;;;6.70;99.90;;;;;;4929728;29;20155;-87
2022/11/13 04:05:52;;;;;;;14.85;12.27;;;6.40;99.90;;;;;;4931175;29;20071;-87
2022/11/13 04:08:18;;;;;;;13.07;11.63;;;6.50;99.90;;;;;;4903919;29;20079;-87
2022/11/13 04:10:44;;;;;;;13.32;11.93;;;6.40;99.90;;;;;;4924250;29;20036;-87
2022/11/13 04:13:10;;;;;;;13.65;12.25;;;6.50;99.90;;;;;;4933083;29;20047;-87
2022/11/13 04:15:36;;;;;;;13.63;11.13;;;6.50;99.90;;;;;;4917339;29;20123;-86
2022/11/13 04:18:02;;;;;;;11.75;10.65;;;6.40;99.90;;;;;;4933841;29;20079;-87
2022/11/13 04:20:29;;;;;;;16.60;11.38;;;6.40;99.90;;;;;;4934166;29;20471;-87
2022/11/13 04:22:57;;;;;;;11.48;10.27;;;7.20;99.90;;;;;;4917664;29;20132;-86
2022/11/13 04:25:24;;;;;;;12.93;10.93;;;6.40;99.90;;;;;;4919402;29;20056;-86
2022/11/13 04:27:51;;;;;;;13.45;10.70;;;6.40;99.90;;;;;;4919238;29;20055;-86
2022/11/13 04:30:17;;;;;;;13.68;11.43;;;6.90;99.90;;;;;;4936492;29;20043;-87
2022/11/13 04:32:43;;;;;;;14.25;12.70;;;6.40;99.90;;;;;;4935417;29;20043;-86
2022/11/13 04:35:09;;;;;;;16.00;11.60;;;6.70;99.90;;;;;;4907904;29;20067;-87
2022/11/13 04:37:34;;;;;;;15.82;14.05;;;6.30;99.90;;;;;;4919204;29;20087;-87
2022/11/13 04:40:00;;;;;;;14.75;13.27;;;6.20;99.90;;;;;;4928435;29;20059;-87
2022/11/13 04:45:13;;;;;;;15.80;14.15;;;6.20;99.90;;;;;;4919539;29;20480;-87
2022/11/13 04:47:38;;;;;;;17.30;14.18;;;6.20;99.90;;;;;;4919119;29;20036;-87
2022/11/13 04:50:05;;;;;;;19.60;15.13;;;6.40;99.90;;;;;;4935386;29;20101;-87
2022/11/13 04:52:30;;;;;;;17.50;15.70;;;6.30;99.90;;;;;;4933463;29;20183;-87
2022/11/13 04:54:57;;;;;;;17.33;15.05;;;6.10;99.90;;;;;;4934817;29;20127;-87
2022/11/13 04:57:22;;;;;;;16.92;15.23;;;6.20;99.90;;;;;;4931420;29;20113;-87
2022/11/13 04:59:48;;;;;;;19.50;16.92;;;6.20;99.90;;;;;;4924158;29;20044;-87
2022/11/13 05:02:14;;;;;;;20.70;17.48;;;6.20;99.90;;;;;;4929679;29;20044;-86
2022/11/13 05:04:39;;;;;;;17.17;15.40;;;6.10;99.90;;;;;;4936110;29;20040;-87
2022/11/13 05:07:05;;;;;;;17.60;15.80;;;6.40;99.90;;;;;;4936147;29;20492;-87
2022/11/13 05:09:30;;;;;;;17.48;15.25;;;5.80;99.90;;;;;;4934757;29;20122;-86
2022/11/13 05:11:56;;;;;;;18.38;16.38;;;5.70;99.90;;;;;;4934955;29;20482;-86
2022/11/13 05:14:21;;;;;;;18.13;16.20;;;5.60;99.90;;;;;;4935624;29;20035;-86
2022/11/13 05:16:48;;;;;;;19.80;17.13;;;5.60;99.90;;;;;;4934876;29;20043;-87
2022/11/13 05:19:15;;;;;;;19.98;16.92;;;5.70;99.90;;;;;;4934649;29;20075;-87
2022/11/13 05:21:41;;;;;;;19.95;17.85;;;6.00;99.90;;;;;;4919566;29;20123;-86
2022/11/13 05:24:09;;;;;;;20.00;17.58;;;5.80;99.90;;;;;;4919048;29;20055;-87
2022/11/13 05:26:39;;;;;;;18.48;16.27;;;5.90;99.90;;;;;;4929652;29;20083;-87
2022/11/13 05:29:05;;;;;;;21.63;17.08;;;5.90;99.90;;;;;;4935771;29;20550;-87
2022/11/13 05:31:31;;;;;;;21.58;17.33;;;6.00;99.90;;;;;;4917854;29;20043;-87
2022/11/13 05:33:56;;;;;;;21.05;16.95;;;6.00;99.90;;;;;;4929665;29;20070;-87
2022/11/13 05:36:22;;;;;;;17.65;15.85;;;6.00;99.90;;;;;;4909237;29;20490;-87
2022/11/13 05:38:50;;;;;;;18.30;16.08;;;6.00;99.90;;;;;;4904826;29;20491;-86
2022/11/13 05:41:18;;;;;;;20.20;15.25;;;5.90;99.90;;;;;;4906113;29;20123;-87
2022/11/13 05:43:44;;;;;;;15.98;14.35;;;5.90;99.90;;;;;;4915172;29;20399;-86
2022/11/13 05:46:19;;;;;;;15.73;14.10;;;5.90;99.90;;;;;;4926352;29;20055;-86
2022/11/13 05:48:46;;;;;;;17.73;15.95;;;5.90;99.90;;;;;;4930012;29;20443;-86
2022/11/13 05:51:21;;;;;;;16.73;15.00;;;5.90;99.90;;;;;;4926900;29;20039;-86
2022/11/13 05:53:47;;;;;;;17.60;15.73;;;5.90;99.90;;;;;;4927684;29;20460;-86
2022/11/13 05:56:19;;;;;;;18.38;16.58;;;5.90;99.90;;;;;;4929687;29;20044;-86
2022/11/13 05:58:45;;;;;;;17.40;15.55;;;6.00;99.90;;;;;;4928030;29;20043;-86
2022/11/13 06:01:14;;;;;;;16.98;14.32;;;5.90;99.90;;;;;;4924549;29;20127;-87
2022/11/13 06:03:40;;;;;;;18.58;14.55;;;5.90;99.90;;;;;;4931634;29;20040;-87
2022/11/13 06:06:08;;;;;;;16.90;15.10;;;5.90;99.90;;;;;;4933027;29;20032;-86
2022/11/13 06:08:35;;;;;;;15.68;14.00;;;5.80;99.90;;;;;;4928786;29;20131;-86
2022/11/13 06:11:03;;;;;;;16.38;14.52;;;5.80;99.90;;;;;;4913624;29;20494;-86
2022/11/13 06:13:28;;;;;;;18.67;14.88;;;5.70;99.90;;;;;;4921875;29;20043;-86
2022/11/13 06:16:00;;;;;;;17.73;15.35;;;6.30;99.90;;;;;;4922912;29;20108;-86
2022/11/13 06:18:25;;;;;;;17.20;15.35;;;5.50;99.90;;;;;;4932214;29;20074;-86
2022/11/13 06:20:51;;;;;;;16.02;13.30;;;5.40;99.90;;;;;;4930582;29;20040;-86
2022/11/13 06:23:16;;;;;;;15.63;14.02;;;5.40;99.90;;;;;;4928089;29;20047;-87
2022/11/13 06:25:42;;;;;;;14.88;13.38;;;5.50;99.90;;;;;;4920280;29;20481;-86
2022/11/13 06:28:08;;;;;;;19.35;14.32;;;5.30;99.90;;;;;;4930864;29;20047;-86
2022/11/13 06:30:33;;;;;;;16.05;13.88;;;6.60;99.90;;;;;;4931943;29;20043;-86
2022/11/13 06:32:59;;;;;;;15.35;13.75;;;5.50;99.90;;;;;;4916810;29;20051;-86
2022/11/13 06:35:25;;;;;;;14.90;13.40;;;5.50;99.90;;;;;;4928983;29;20478;-86
2022/11/13 06:37:53;;;;;;;18.08;13.70;;;5.60;99.90;;;;;;4932301;29;20047;-87
2022/11/13 06:40:28;;;;;;;16.77;13.48;;;5.60;99.90;;;;;;4900311;29;20123;-84
2022/11/13 06:42:54;;;;;;;16.70;13.77;;;5.80;99.90;;;;;;4903992;29;20050;-88
2022/11/13 06:45:19;;;;;;;15.65;13.32;;;5.60;99.90;;;;;;4924396;29;20036;-87
2022/11/13 06:47:45;;;;;;;16.13;14.43;;;6.60;99.90;;;;;;4922081;29;20114;-86
2022/11/13 06:50:16;;;;;;;16.35;14.10;;;5.60;99.90;;;;;;4921765;29;20083;-87
2022/11/13 06:52:41;;;;;;;15.77;14.15;;;5.80;99.90;;;;;;4918381;29;20051;-86
2022/11/13 06:55:07;;;;;;;17.45;14.75;;;5.40;99.90;;;;;;4920363;29;20044;-85
2022/11/13 06:58:42;;;;;;;17.08;14.43;;;5.40;99.90;;;;;;4919724;29;20024;-84
2022/11/13 07:05:39;;;;;;;14.45;12.77;;;5.10;99.90;;;;;;4949929;29;20067;-86
2022/11/13 07:09:21;;;;;;;14.82;13.27;;;5.10;99.90;;;;;;4890680;29;20740;-86
2022/11/13 07:12:42;;;;;;;16.90;14.23;;;4.70;99.90;;;;;;4921313;29;20046;-86
2022/11/13 07:15:44;;;;;;;20.65;14.50;;;5.10;99.90;;;;;;4899390;29;20056;-86
2022/11/13 07:22:12;;;;;;;15.32;13.75;;;5.30;99.90;;;;;;4850578;29;20546;-86
2022/11/13 07:25:05;;;;;;;17.85;14.60;;;5.30;99.90;;;;;;4863142;29;20044;-86
2022/11/13 07:27:35;;;;;;;16.98;14.07;;;5.30;99.90;;;;;;4863572;29;20057;-86
2022/11/13 08:16:41;;;;;;;17.40;13.98;;;6.20;99.90;;;;;;4916065;29;20047;-86
2022/11/13 08:19:34;;;;;;;17.58;14.32;;;6.30;99.90;;;;;;4908146;29;20040;-88
2022/11/13 08:22:26;;;;;;;14.02;12.65;;;6.40;99.90;;;;;;4909050;29;20127;-88
2022/11/13 12:14:39;;;;;;;4.30;2.70;;;13.40;99.90;;;;;;4908798;29;20052;-84
2022/11/13 15:33:50;;;;;;;5.70;5.15;;;11.20;99.90;;;;;;4885964;29;20143;-87
2022/11/13 17:03:27;;;;;;;7.78;7.05;;;9.10;99.90;;;;;;4892163;29;20047;-85
2022/11/13 18:17:38;;;;;;;10.20;8.95;;;8.20;99.90;;;;;;4892339;29;20044;-85
2022/11/13 18:20:52;;;;;;;10.73;9.43;;;8.80;99.90;;;;;;4905846;29;20070;-86
2022/11/13 18:35:23;;;;;;;9.10;8.25;;;8.40;99.90;;;;;;4838787;29;20155;-87
2022/11/13 18:38:57;;;;;;;10.80;9.70;;;8.40;99.90;;;;;;4834203;29;20087;-87
2022/11/13 18:48:50;;;;;;;10.93;9.25;;;8.30;99.90;;;;;;4828974;29;20135;-87
2022/11/13 18:51:34;;;;;;;;;;;;;;;;;;;;;
2022/11/13 18:54:27;;;;;;;11.30;9.35;;;8.30;99.90;;;;;;4897510;29;20048;-87
2022/11/13 18:57:28;;;;;;;;;;;;;;;;;;;;;
2022/11/13 19:00:26;;;;;;;10.25;9.15;;;8.80;99.90;;;;;;4892206;29;20033;-87
2022/11/13 19:03:32;;;;;;;10.88;9.75;;;8.20;99.90;;;;;;4879168;29;20518;-87
2022/11/13 19:05:58;;;;;;;13.00;9.65;;;7.60;99.90;;;;;;4879234;29;20052;-86
2022/11/13 19:08:24;;;;;;;11.98;9.82;;;7.80;99.90;;;;;;4894020;29;20654;-84
2022/11/13 19:10:49;;;;;;;11.25;10.05;;;7.80;99.90;;;;;;4887296;29;20036;-86
2022/11/13 19:13:15;;;;;;;11.38;9.98;;;7.70;99.90;;;;;;4890711;29;20071;-85
2022/11/13 19:15:40;;;;;;;10.88;9.70;;;7.70;99.90;;;;;;4888564;29;20035;-84
2022/11/13 19:18:07;;;;;;;12.32;10.07;;;7.70;99.90;;;;;;4884102;29;20041;-84
2022/11/13 19:20:37;;;;;;;12.18;10.98;;;7.60;99.90;;;;;;4881061;29;20040;-85
2022/11/13 19:23:02;;;;;;;13.73;10.52;;;7.50;99.90;;;;;;4896284;29;20075;-83
2022/11/13 19:25:47;;;;;;;13.85;10.75;;;7.50;99.90;;;;;;4876780;29;20048;-83
2022/11/13 19:28:12;;;;;;;12.50;10.27;;;7.40;99.90;;;;;;4876692;29;20044;-83
2022/11/13 19:30:44;;;;;;;14.07;10.90;;;7.40;99.90;;;;;;4877978;29;20040;-86
2022/11/13 19:33:13;;;;;;;12.88;10.73;;;7.20;99.90;;;;;;4870000;29;20901;-84
2022/11/13 19:35:42;;;;;;;13.68;11.35;;;7.20;99.90;;;;;;4887902;29;20088;-85
2022/11/13 19:38:14;;;;;;;16.30;11.35;;;7.10;99.90;;;;;;4871124;29;20241;-85
2022/11/13 19:40:39;;;;;;;13.05;11.65;;;7.00;99.90;;;;;;4890243;29;20128;-85
2022/11/13 19:43:06;;;;;;;12.10;10.80;;;7.00;99.90;;;;;;4888231;29;20934;-84
2022/11/13 19:45:43;;;;;;;13.23;11.82;;;6.90;99.90;;;;;;4870571;29;20099;-85
2022/11/13 19:48:10;;;;;;;14.10;11.85;;;6.70;99.90;;;;;;4888060;29;20032;-87
2022/11/13 19:51:03;;;;;;;14.38;11.63;;;6.70;99.90;;;;;;4887194;29;20047;-88
2022/11/13 19:57:34;;;;;;;14.93;13.20;;;6.60;99.90;;;;;;4891585;29;20036;-83
2022/11/13 20:00:26;;;;;;;17.60;14.38;;;6.60;99.90;;;;;;4876541;29;20056;-86
2022/11/13 20:03:56;;;;;;;20.75;15.30;;;6.60;99.90;;;;;;4903230;29;20051;-87
2022/11/13 20:06:25;;;;;;;17.05;15.25;;;6.60;99.90;;;;;;4887131;29;20060;-86
2022/11/13 20:09:11;;;;;;;18.77;16.77;;;6.50;99.90;;;;;;4871665;29;20048;-85
2022/11/13 20:11:40;;;;;;;18.75;16.73;;;6.80;99.90;;;;;;4903349;29;20044;-85
2022/11/13 20:14:18;;;;;;;18.60;16.58;;;7.20;99.90;;;;;;4871540;29;20052;-86
2022/11/13 20:16:45;;;;;;;21.02;17.60;;;6.40;99.90;;;;;;4874156;29;20040;-85
2022/11/13 20:19:14;;;;;;;21.98;18.48;;;6.60;99.90;;;;;;4877125;29;20037;-86
2022/11/13 20:21:40;;;;;;;22.58;20.17;;;6.20;99.90;;;;;;4873042;29;20779;-85
2022/11/13 20:24:18;;;;;;;24.25;19.65;;;6.20;99.90;;;;;;4890429;29;20350;-86
2022/11/13 20:26:50;;;;;;;21.42;19.00;;;6.50;99.90;;;;;;4907436;29;21077;-87
2022/11/13 20:29:16;;;;;;;22.70;19.75;;;6.10;99.90;;;;;;4887274;29;20045;-85
2022/11/13 20:32:01;;;;;;;22.52;20.13;;;6.00;99.90;;;;;;4871245;29;20067;-86
2022/11/13 20:34:26;;;;;;;24.40;20.38;;;5.90;99.90;;;;;;4886818;29;20127;-85
2022/11/13 20:37:12;;;;;;;23.73;20.65;;;5.90;99.90;;;;;;4887816;29;20802;-87
2022/11/13 20:39:40;;;;;;;24.60;20.98;;;5.80;99.90;;;;;;4887255;29;20129;-86
2022/11/13 20:42:07;;;;;;;25.73;21.40;;;5.80;99.90;;;;;;4869834;29;20048;-85
2022/11/13 20:45:02;;;;;;;23.60;20.90;;;6.30;99.90;;;;;;4885620;29;20116;-86
2022/11/13 20:47:28;;;;;;;26.00;22.10;;;5.70;99.90;;;;;;4885287;29;20041;-86
2022/11/13 20:50:12;;;;;;;25.08;22.38;;;5.60;99.90;;;;;;4870059;29;20376;-86
2022/11/13 20:52:39;;;;;;;29.27;25.00;;;5.60;99.90;;;;;;4866045;29;20787;-86
2022/11/13 20:55:05;;;;;;;29.95;24.98;;;5.60;99.90;;;;;;4867445;29;20040;-86
2022/11/13 20:57:50;;;;;;;27.02;22.65;;;5.50;99.90;;;;;;4871006;29;20045;-86
2022/11/13 21:00:19;;;;;;;29.87;24.57;;;5.40;99.90;;;;;;4887275;29;20048;-87
2022/11/13 21:02:57;;;;;;;29.20;25.23;;;5.30;99.90;;;;;;4875374;29;20428;-87
2022/11/13 21:05:32;;;;;;;37.10;25.77;;;5.20;99.90;;;;;;4886122;29;20029;-85
2022/11/13 21:08:21;;;;;;;34.20;30.20;;;5.20;99.90;;;;;;4888672;29;20104;-85
2022/11/13 21:10:47;;;;;;;34.75;29.55;;;5.20;99.90;;;;;;4886648;29;20115;-86
2022/11/13 21:13:16;;;;;;;35.30;29.30;;;5.10;99.90;;;;;;4887101;29;20072;-87
2022/11/13 21:16:08;;;;;;;37.65;29.83;;;5.20;99.90;;;;;;4884804;29;20443;-87
2022/11/13 21:18:42;;;;;;;37.15;28.88;;;5.10;99.90;;;;;;4872892;29;20131;-84
2022/11/13 21:21:24;;;;;;;42.88;33.15;;;5.10;99.90;;;;;;4885026;29;20345;-85
2022/11/13 21:24:06;;;;;;;42.45;33.08;;;5.20;99.90;;;;;;4857547;29;20538;-84
2022/11/13 21:26:32;;;;;;;48.58;34.03;;;6.00;99.90;;;;;;4852424;29;20060;-84
2022/11/13 21:28:59;;;;;;;43.05;32.97;;;5.20;99.90;;;;;;4886773;29;20095;-83
2022/11/13 21:31:29;;;;;;;42.78;32.65;;;5.20;99.90;;;;;;4887250;29;20639;-84
2022/11/13 21:34:04;;;;;;;43.22;31.20;;;5.30;99.90;;;;;;4891349;29;20056;-85
2022/11/13 21:36:30;;;;;;;42.88;34.00;;;5.20;99.90;;;;;;4889302;29;20419;-85
2022/11/13 21:38:55;;;;;;;42.15;32.92;;;5.20;99.90;;;;;;4887658;29;20403;-83
2022/11/13 21:41:26;;;;;;;42.05;31.95;;;5.30;99.90;;;;;;4877819;29;20389;-85
2022/11/13 21:44:12;;;;;;;42.20;32.25;;;5.30;99.90;;;;;;4889390;29;21116;-83
2022/11/13 21:46:40;;;;;;;40.92;29.65;;;5.30;99.90;;;;;;4892269;29;20044;-85
2022/11/13 21:49:24;;;;;;;42.17;31.10;;;5.30;99.90;;;;;;4891242;29;20044;-84
2022/11/13 21:51:49;;;;;;;41.70;30.05;;;5.30;99.90;;;;;;4875117;29;20037;-83
2022/11/13 21:54:15;;;;;;;41.95;30.02;;;5.40;99.90;;;;;;4871266;29;20389;-85
2022/11/13 21:56:56;;;;;;;39.55;29.33;;;5.30;99.90;;;;;;4872538;29;20095;-85
2022/11/13 21:59:21;;;;;;;48.78;31.63;;;5.40;99.90;;;;;;4877509;29;20044;-86
2022/11/13 22:01:47;;;;;;;39.70;29.15;;;5.80;99.90;;;;;;4873038;29;20047;-86
2022/11/13 22:04:13;;;;;;;41.60;30.92;;;5.40;99.90;;;;;;4875855;29;20423;-83
2022/11/13 22:06:51;;;;;;;41.83;29.73;;;5.40;99.90;;;;;;4909213;29;20052;-85
2022/11/13 22:09:24;;;;;;;41.92;29.83;;;5.40;99.90;;;;;;4877874;29;20041;-85
2022/11/13 22:11:50;;;;;;;44.60;30.23;;;5.50;99.90;;;;;;4891372;29;20743;-85
2022/11/13 22:14:34;;;;;;;44.72;29.80;;;6.00;99.90;;;;;;4890872;29;20040;-86
2022/11/13 22:17:00;;;;;;;42.97;29.60;;;5.60;99.90;;;;;;4874183;29;20079;-84
2022/11/13 22:19:25;;;;;;;44.42;30.30;;;5.60;99.90;;;;;;4890431;29;20072;-85
2022/11/13 22:21:51;;;;;;;43.67;29.05;;;5.50;99.90;;;;;;4893529;29;20064;-85
2022/11/13 22:24:35;;;;;;;47.95;28.50;;;5.60;99.90;;;;;;4880585;29;20045;-85
2022/11/13 22:27:00;;;;;;;54.83;30.73;;;5.60;99.90;;;;;;4885514;29;20068;-85
2022/11/13 22:29:26;;;;;;;41.80;28.35;;;5.70;99.90;;;;;;4894699;29;20091;-85
2022/11/13 22:32:04;;;;;;;45.13;30.55;;;5.60;99.90;;;;;;4889384;29;20052;-85
2022/11/13 22:34:30;;;;;;;45.85;29.20;;;5.60;99.90;;;;;;4892068;29;20059;-85
2022/11/13 22:36:55;;;;;;;44.75;28.98;;;5.90;99.90;;;;;;4886291;29;20033;-85
2022/11/13 22:39:21;;;;;;;48.00;28.88;;;5.70;99.90;;;;;;4880787;29;20037;-86
2022/11/13 22:41:46;;;;;;;48.90;29.65;;;5.70;99.90;;;;;;4892681;29;20044;-85
2022/11/13 22:44:21;;;;;;;45.25;28.75;;;5.70;99.90;;;;;;4878104;29;20044;-84
2022/11/13 22:46:46;;;;;;;46.63;28.67;;;5.70;99.90;;;;;;4875215;29;20048;-86
2022/11/13 22:49:12;;;;;;;51.40;30.38;;;5.70;99.90;;;;;;4879869;29;20078;-84
2022/11/13 22:51:40;;;;;;;52.38;30.20;;;5.70;99.90;;;;;;4895394;29;20540;-86
2022/11/13 22:54:21;;;;;;;50.20;30.15;;;5.80;99.90;;;;;;4893668;29;20543;-85
2022/11/13 22:56:46;;;;;;;48.38;29.52;;;5.80;99.90;;;;;;4877912;29;20060;-85
2022/11/13 22:59:12;;;;;;;49.30;29.30;;;5.80;99.90;;;;;;4873437;29;20041;-85
2022/11/13 23:01:40;;;;;;;50.53;29.73;;;6.20;99.90;;;;;;4883049;29;20139;-85
2022/11/13 23:04:17;;;;;;;52.97;30.77;;;5.80;99.90;;;;;;4878622;29;20043;-85
2022/11/13 23:06:44;;;;;;;51.53;28.33;;;5.80;99.90;;;;;;4894169;29;20436;-85
2022/11/13 23:09:10;;;;;;;52.28;28.73;;;5.90;99.90;;;;;;4880370;29;20041;-85
2022/11/13 23:11:37;;;;;;;50.00;28.88;;;5.90;99.90;;;;;;4893346;29;20051;-84
2022/11/13 23:14:15;;;;;;;53.53;29.65;;;5.90;99.90;;;;;;4891995;29;20131;-85
2022/11/13 23:16:41;;;;;;;49.40;28.67;;;6.00;99.90;;;;;;4893001;29;20092;-85
2022/11/13 23:19:07;;;;;;;49.70;28.38;;;6.00;99.90;;;;;;4895887;29;20158;-86
2022/11/13 23:21:33;;;;;;;53.13;29.00;;;6.00;99.90;;;;;;4877442;29;20043;-86
2022/11/13 23:24:11;;;;;;;51.10;27.65;;;6.00;99.90;;;;;;4877741;29;20051;-86
2022/11/13 23:26:37;;;;;;;50.03;26.67;;;6.00;99.90;;;;;;4892838;29;20036;-86
2022/11/13 23:29:03;;;;;;;52.20;27.98;;;6.10;99.90;;;;;;4893600;29;20100;-84
2022/11/13 23:31:28;;;;;;;50.60;28.38;;;6.10;99.90;;;;;;4894074;29;20131;-84
2022/11/13 23:33:54;;;;;;;52.00;28.83;;;6.10;99.90;;;;;;4888717;29;20106;-83
2022/11/13 23:36:35;;;;;;;57.60;29.27;;;6.10;99.90;;;;;;4893874;29;20080;-85
2022/11/13 23:39:00;;;;;;;54.55;29.73;;;6.10;99.90;;;;;;4876093;29;20187;-86
2022/11/13 23:41:26;;;;;;;53.08;29.35;;;6.10;99.90;;;;;;4893757;29;20167;-86
2022/11/13 23:43:51;;;;;;;53.60;30.42;;;6.10;99.90;;;;;;4877390;29;20106;-85
2022/11/13 23:46:27;;;;;;;54.83;27.90;;;6.20;99.90;;;;;;4885769;29;20876;-85
2022/11/13 23:48:53;;;;;;;51.75;29.05;;;7.10;99.90;;;;;;4889753;29;20364;-86
2022/11/13 23:51:19;;;;;;;52.72;28.73;;;6.20;99.90;;;;;;4877938;29;20036;-85
2022/11/13 23:53:44;;;;;;;55.03;30.13;;;6.20;99.90;;;;;;4894116;29;20464;-86
2022/11/13 23:56:30;;;;;;;51.75;29.25;;;6.20;99.90;;;;;;4891678;29;20064;-84
2022/11/13 23:58:55;;;;;;;48.00;28.40;;;6.30;99.90;;;;;;4876879;29;20522;-85
